Santa Fe, Tennessee
Current Conditions -  °F | °C
As of 1:53 AM on Monday 24 Nov 2014 (Local Time) from KBNA Reporting Station
Broken Clouds Broken Clouds  
Wind Chill: 63°   Ceiling: 3800
Heat Index: 63°   Visibility: 10mi
Dew Point: 56°   Wind: 20mph
Humidity: 78%   Direction: 200°SSW
Pressure: 29.49"   Gusts: 33mph
Location:  35.73°N, 87.13°W
Report Text: KBNA 240753Z 20017G29KT 10SM SCT030 BKN038 BKN060 17/13 A2949 RMK AO2 PK WND 19029/0750 SLP982 T01720133 $
Loading
Personal Weather Stations






























Interactive Weather Map New forecast layout! Learn more

10-Day Weather Forecast

Advertisements
Track Severe Weather on mobile